sensor_id;sensor_type;location;lat;lon;timestamp;P1;durP1;ratioP1;P2;durP2;ratioP2
18387;SDS011;9320;50.256;19.026;2022-10-16T00:00:57;19.85;;;13.23;;
18387;SDS011;9320;50.256;19.026;2022-10-16T00:03:25;24.10;;;13.30;;
18387;SDS011;9320;50.256;19.026;2022-10-16T00:05:58;24.45;;;13.63;;
18387;SDS011;9320;50.256;19.026;2022-10-16T00:08:27;18.13;;;12.70;;
18387;SDS011;9320;50.256;19.026;2022-10-16T00:11:00;19.67;;;12.63;;
18387;SDS011;9320;50.256;19.026;2022-10-16T00:13:29;20.38;;;13.13;;
18387;SDS011;9320;50.256;19.026;2022-10-16T00:15:58;19.17;;;12.55;;
18387;SDS011;9320;50.256;19.026;2022-10-16T00:18:27;23.52;;;13.48;;
18387;SDS011;9320;50.256;19.026;2022-10-16T00:21:00;21.35;;;12.18;;
18387;SDS011;9320;50.256;19.026;2022-10-16T00:23:31;18.48;;;12.23;;
18387;SDS011;9320;50.256;19.026;2022-10-16T00:26:00;24.90;;;12.38;;
18387;SDS011;9320;50.256;19.026;2022-10-16T00:28:30;18.92;;;11.93;;
18387;SDS011;9320;50.256;19.026;2022-10-16T00:30:59;20.13;;;12.50;;
18387;SDS011;9320;50.256;19.026;2022-10-16T00:33:30;19.77;;;12.18;;
18387;SDS011;9320;50.256;19.026;2022-10-16T00:35:58;23.65;;;13.10;;
18387;SDS011;9320;50.256;19.026;2022-10-16T00:38:27;18.70;;;12.18;;
18387;SDS011;9320;50.256;19.026;2022-10-16T00:40:56;22.47;;;13.57;;
18387;SDS011;9320;50.256;19.026;2022-10-16T00:43:35;20.73;;;12.38;;
18387;SDS011;9320;50.256;19.026;2022-10-16T00:46:08;19.52;;;12.80;;
18387;SDS011;9320;50.256;19.026;2022-10-16T00:48:42;18.85;;;11.48;;
18387;SDS011;9320;50.256;19.026;2022-10-16T00:51:16;16.77;;;11.47;;
18387;SDS011;9320;50.256;19.026;2022-10-16T00:53:46;20.40;;;12.60;;
18387;SDS011;9320;50.256;19.026;2022-10-16T00:56:17;20.67;;;12.53;;
18387;SDS011;9320;50.256;19.026;2022-10-16T00:58:45;17.67;;;12.07;;
18387;SDS011;9320;50.256;19.026;2022-10-16T01:01:13;19.08;;;11.50;;
18387;SDS011;9320;50.256;19.026;2022-10-16T01:03:41;19.27;;;11.97;;
18387;SDS011;9320;50.256;19.026;2022-10-16T01:06:12;22.15;;;12.02;;
18387;SDS011;9320;50.256;19.026;2022-10-16T01:11:55;23.27;;;11.67;;
18387;SDS011;9320;50.256;19.026;2022-10-16T01:14:32;19.48;;;12.23;;
18387;SDS011;9320;50.256;19.026;2022-10-16T01:17:09;22.65;;;12.27;;
18387;SDS011;9320;50.256;19.026;2022-10-16T01:19:50;18.00;;;12.30;;
18387;SDS011;9320;50.256;19.026;2022-10-16T01:22:33;19.98;;;11.25;;
18387;SDS011;9320;50.256;19.026;2022-10-16T01:25:11;18.67;;;11.70;;
18387;SDS011;9320;50.256;19.026;2022-10-16T01:27:47;19.88;;;12.57;;
18387;SDS011;9320;50.256;19.026;2022-10-16T01:30:16;24.02;;;12.50;;
18387;SDS011;9320;50.256;19.026;2022-10-16T01:32:49;22.20;;;13.02;;
18387;SDS011;9320;50.256;19.026;2022-10-16T01:35:23;24.10;;;13.32;;
18387;SDS011;9320;50.256;19.026;2022-10-16T01:37:55;20.55;;;12.75;;
18387;SDS011;9320;50.256;19.026;2022-10-16T01:40:28;22.40;;;13.85;;
18387;SDS011;9320;50.256;19.026;2022-10-16T01:43:02;27.77;;;14.97;;
18387;SDS011;9320;50.256;19.026;2022-10-16T01:45:33;23.92;;;13.82;;
18387;SDS011;9320;50.256;19.026;2022-10-16T01:48:04;25.33;;;15.00;;
18387;SDS011;9320;50.256;19.026;2022-10-16T01:50:37;25.70;;;15.30;;
18387;SDS011;9320;50.256;19.026;2022-10-16T01:53:08;22.55;;;15.25;;
18387;SDS011;9320;50.256;19.026;2022-10-16T01:55:40;25.13;;;15.33;;
18387;SDS011;9320;50.256;19.026;2022-10-16T01:58:14;23.70;;;15.60;;
18387;SDS011;9320;50.256;19.026;2022-10-16T02:00:43;24.40;;;15.60;;
18387;SDS011;9320;50.256;19.026;2022-10-16T02:03:14;22.60;;;14.43;;
18387;SDS011;9320;50.256;19.026;2022-10-16T02:05:46;23.35;;;16.00;;
18387;SDS011;9320;50.256;19.026;2022-10-16T02:08:16;22.17;;;14.57;;
18387;SDS011;9320;50.256;19.026;2022-10-16T02:10:44;24.67;;;14.93;;
18387;SDS011;9320;50.256;19.026;2022-10-16T02:13:15;20.60;;;13.40;;
18387;SDS011;9320;50.256;19.026;2022-10-16T02:15:46;21.07;;;13.90;;
18387;SDS011;9320;50.256;19.026;2022-10-16T02:18:15;19.77;;;12.57;;
18387;SDS011;9320;50.256;19.026;2022-10-16T02:20:44;20.17;;;12.30;;
18387;SDS011;9320;50.256;19.026;2022-10-16T02:23:19;19.73;;;12.10;;
18387;SDS011;9320;50.256;19.026;2022-10-16T02:25:51;19.00;;;12.23;;
18387;SDS011;9320;50.256;19.026;2022-10-16T02:28:23;20.50;;;12.03;;
18387;SDS011;9320;50.256;19.026;2022-10-16T02:30:56;21.17;;;12.80;;
18387;SDS011;9320;50.256;19.026;2022-10-16T02:33:27;20.50;;;12.93;;
18387;SDS011;9320;50.256;19.026;2022-10-16T02:35:58;18.97;;;11.83;;
18387;SDS011;9320;50.256;19.026;2022-10-16T02:38:26;22.40;;;12.85;;
18387;SDS011;9320;50.256;19.026;2022-10-16T02:40:56;18.58;;;11.80;;
18387;SDS011;9320;50.256;19.026;2022-10-16T02:43:25;18.87;;;12.20;;
18387;SDS011;9320;50.256;19.026;2022-10-16T02:45:53;21.05;;;12.05;;
18387;SDS011;9320;50.256;19.026;2022-10-16T02:48:22;19.75;;;12.60;;
18387;SDS011;9320;50.256;19.026;2022-10-16T02:50:50;21.23;;;12.80;;
18387;SDS011;9320;50.256;19.026;2022-10-16T02:53:18;18.85;;;11.98;;
18387;SDS011;9320;50.256;19.026;2022-10-16T02:55:46;21.92;;;12.90;;
18387;SDS011;9320;50.256;19.026;2022-10-16T02:58:14;16.37;;;11.33;;
18387;SDS011;9320;50.256;19.026;2022-10-16T03:00:43;18.33;;;12.67;;
18387;SDS011;9320;50.256;19.026;2022-10-16T03:03:12;17.70;;;12.27;;
18387;SDS011;9320;50.256;19.026;2022-10-16T03:05:40;19.47;;;12.60;;
18387;SDS011;9320;50.256;19.026;2022-10-16T03:08:09;19.93;;;12.73;;
18387;SDS011;9320;50.256;19.026;2022-10-16T03:10:37;23.80;;;12.40;;
18387;SDS011;9320;50.256;19.026;2022-10-16T03:13:05;14.83;;;11.10;;
18387;SDS011;9320;50.256;19.026;2022-10-16T03:15:33;21.47;;;12.50;;
18387;SDS011;9320;50.256;19.026;2022-10-16T03:18:03;19.00;;;12.43;;
18387;SDS011;9320;50.256;19.026;2022-10-16T03:20:30;21.57;;;12.27;;
18387;SDS011;9320;50.256;19.026;2022-10-16T03:22:58;17.43;;;11.30;;
18387;SDS011;9320;50.256;19.026;2022-10-16T03:25:26;22.40;;;12.60;;
18387;SDS011;9320;50.256;19.026;2022-10-16T03:27:54;23.10;;;12.07;;
18387;SDS011;9320;50.256;19.026;2022-10-16T03:30:22;20.77;;;12.73;;
18387;SDS011;9320;50.256;19.026;2022-10-16T03:32:50;21.80;;;12.50;;
18387;SDS011;9320;50.256;19.026;2022-10-16T03:35:21;23.03;;;13.23;;
18387;SDS011;9320;50.256;19.026;2022-10-16T03:37:50;18.43;;;12.13;;
18387;SDS011;9320;50.256;19.026;2022-10-16T03:40:18;18.17;;;11.63;;
18387;SDS011;9320;50.256;19.026;2022-10-16T03:42:47;18.07;;;12.50;;
18387;SDS011;9320;50.256;19.026;2022-10-16T03:45:15;18.93;;;12.87;;
18387;SDS011;9320;50.256;19.026;2022-10-16T03:47:43;21.03;;;13.50;;
18387;SDS011;9320;50.256;19.026;2022-10-16T03:50:11;17.17;;;12.23;;
18387;SDS011;9320;50.256;19.026;2022-10-16T03:52:40;20.47;;;13.00;;
18387;SDS011;9320;50.256;19.026;2022-10-16T03:55:08;19.70;;;12.63;;
18387;SDS011;9320;50.256;19.026;2022-10-16T03:57:36;20.23;;;11.80;;
18387;SDS011;9320;50.256;19.026;2022-10-16T04:00:05;17.20;;;11.90;;
18387;SDS011;9320;50.256;19.026;2022-10-16T04:02:33;20.93;;;11.67;;
18387;SDS011;9320;50.256;19.026;2022-10-16T04:05:01;17.93;;;11.60;;
18387;SDS011;9320;50.256;19.026;2022-10-16T04:07:29;18.40;;;12.27;;
18387;SDS011;9320;50.256;19.026;2022-10-16T04:09:59;19.30;;;12.00;;
18387;SDS011;9320;50.256;19.026;2022-10-16T04:12:27;21.63;;;12.23;;
18387;SDS011;9320;50.256;19.026;2022-10-16T04:14:55;19.33;;;12.07;;
18387;SDS011;9320;50.256;19.026;2022-10-16T04:17:23;17.73;;;11.77;;
18387;SDS011;9320;50.256;19.026;2022-10-16T04:19:51;17.13;;;11.87;;
18387;SDS011;9320;50.256;19.026;2022-10-16T04:22:19;18.77;;;12.63;;
18387;SDS011;9320;50.256;19.026;2022-10-16T04:24:47;19.27;;;11.73;;
18387;SDS011;9320;50.256;19.026;2022-10-16T04:27:17;21.73;;;12.17;;
18387;SDS011;9320;50.256;19.026;2022-10-16T04:29:45;18.20;;;11.80;;
18387;SDS011;9320;50.256;19.026;2022-10-16T04:32:13;18.90;;;11.50;;
18387;SDS011;9320;50.256;19.026;2022-10-16T04:34:41;20.20;;;11.97;;
18387;SDS011;9320;50.256;19.026;2022-10-16T04:37:08;23.53;;;11.73;;
18387;SDS011;9320;50.256;19.026;2022-10-16T04:39:36;20.97;;;12.30;;
18387;SDS011;9320;50.256;19.026;2022-10-16T04:42:04;18.93;;;11.07;;
18387;SDS011;9320;50.256;19.026;2022-10-16T04:44:34;27.20;;;12.63;;
18387;SDS011;9320;50.256;19.026;2022-10-16T04:47:02;18.50;;;12.07;;
18387;SDS011;9320;50.256;19.026;2022-10-16T04:49:31;19.80;;;11.53;;
18387;SDS011;9320;50.256;19.026;2022-10-16T04:51:58;20.13;;;11.77;;
18387;SDS011;9320;50.256;19.026;2022-10-16T04:54:26;19.10;;;12.00;;
18387;SDS011;9320;50.256;19.026;2022-10-16T04:56:54;17.37;;;11.63;;
18387;SDS011;9320;50.256;19.026;2022-10-16T04:59:22;16.70;;;11.87;;
18387;SDS011;9320;50.256;19.026;2022-10-16T05:01:52;17.23;;;11.57;;
18387;SDS011;9320;50.256;19.026;2022-10-16T05:04:20;17.97;;;11.17;;
18387;SDS011;9320;50.256;19.026;2022-10-16T05:06:49;19.45;;;12.18;;
18387;SDS011;9320;50.256;19.026;2022-10-16T05:09:17;22.45;;;12.80;;
18387;SDS011;9320;50.256;19.026;2022-10-16T05:11:45;18.67;;;12.18;;
18387;SDS011;9320;50.256;19.026;2022-10-16T05:14:13;19.48;;;12.57;;
18387;SDS011;9320;50.256;19.026;2022-10-16T05:16:41;19.65;;;12.75;;
18387;SDS011;9320;50.256;19.026;2022-10-16T05:19:10;19.58;;;11.70;;
18387;SDS011;9320;50.256;19.026;2022-10-16T05:21:53;19.08;;;12.55;;
18387;SDS011;9320;50.256;19.026;2022-10-16T05:24:21;19.73;;;12.45;;
18387;SDS011;9320;50.256;19.026;2022-10-16T05:26:49;18.27;;;12.07;;
18387;SDS011;9320;50.256;19.026;2022-10-16T05:29:17;19.13;;;13.07;;
18387;SDS011;9320;50.256;19.026;2022-10-16T05:31:45;21.13;;;12.93;;
18387;SDS011;9320;50.256;19.026;2022-10-16T05:34:15;19.15;;;11.52;;
18387;SDS011;9320;50.256;19.026;2022-10-16T05:36:43;20.73;;;12.48;;
18387;SDS011;9320;50.256;19.026;2022-10-16T05:39:11;20.40;;;12.32;;
18387;SDS011;9320;50.256;19.026;2022-10-16T05:41:41;18.92;;;11.95;;
18387;SDS011;9320;50.256;19.026;2022-10-16T05:44:09;20.02;;;11.95;;
18387;SDS011;9320;50.256;19.026;2022-10-16T05:46:37;18.90;;;11.60;;
18387;SDS011;9320;50.256;19.026;2022-10-16T05:49:05;19.27;;;12.17;;
18387;SDS011;9320;50.256;19.026;2022-10-16T05:51:34;16.97;;;11.97;;
18387;SDS011;9320;50.256;19.026;2022-10-16T05:54:03;20.15;;;12.38;;
18387;SDS011;9320;50.256;19.026;2022-10-16T05:56:31;18.90;;;11.90;;
18387;SDS011;9320;50.256;19.026;2022-10-16T05:58:59;20.20;;;13.30;;
18387;SDS011;9320;50.256;19.026;2022-10-16T06:01:27;17.57;;;11.70;;
18387;SDS011;9320;50.256;19.026;2022-10-16T06:03:55;25.43;;;12.50;;
18387;SDS011;9320;50.256;19.026;2022-10-16T06:06:23;17.40;;;11.63;;
18387;SDS011;9320;50.256;19.026;2022-10-16T06:08:55;18.27;;;11.97;;
18387;SDS011;9320;50.256;19.026;2022-10-16T06:11:24;17.60;;;12.00;;
18387;SDS011;9320;50.256;19.026;2022-10-16T06:13:54;21.17;;;12.10;;
18387;SDS011;9320;50.256;19.026;2022-10-16T06:16:24;17.63;;;12.17;;
18387;SDS011;9320;50.256;19.026;2022-10-16T06:18:53;19.63;;;12.13;;
18387;SDS011;9320;50.256;19.026;2022-10-16T06:21:24;17.85;;;11.90;;
18387;SDS011;9320;50.256;19.026;2022-10-16T06:23:54;17.03;;;11.80;;
18387;SDS011;9320;50.256;19.026;2022-10-16T06:26:23;22.70;;;13.30;;
18387;SDS011;9320;50.256;19.026;2022-10-16T06:28:53;19.10;;;13.63;;
18387;SDS011;9320;50.256;19.026;2022-10-16T06:31:22;22.13;;;14.83;;
18387;SDS011;9320;50.256;19.026;2022-10-16T06:33:53;25.95;;;14.90;;
18387;SDS011;9320;50.256;19.026;2022-10-16T06:36:22;28.03;;;16.50;;
18387;SDS011;9320;50.256;19.026;2022-10-16T06:38:51;23.40;;;14.77;;
18387;SDS011;9320;50.256;19.026;2022-10-16T06:41:21;26.75;;;15.50;;
18387;SDS011;9320;50.256;19.026;2022-10-16T06:43:50;26.85;;;15.20;;
18387;SDS011;9320;50.256;19.026;2022-10-16T06:46:19;23.80;;;15.03;;
18387;SDS011;9320;50.256;19.026;2022-10-16T06:48:48;25.90;;;15.07;;
18387;SDS011;9320;50.256;19.026;2022-10-16T06:51:17;23.25;;;14.25;;
18387;SDS011;9320;50.256;19.026;2022-10-16T06:53:47;22.48;;;14.38;;
18387;SDS011;9320;50.256;19.026;2022-10-16T06:56:33;24.53;;;13.20;;
18387;SDS011;9320;50.256;19.026;2022-10-16T06:59:01;20.80;;;12.82;;
18387;SDS011;9320;50.256;19.026;2022-10-16T07:01:30;16.45;;;11.95;;
18387;SDS011;9320;50.256;19.026;2022-10-16T07:03:58;16.20;;;11.07;;
18387;SDS011;9320;50.256;19.026;2022-10-16T07:06:27;21.00;;;11.48;;
18387;SDS011;9320;50.256;19.026;2022-10-16T07:08:58;18.48;;;11.63;;
18387;SDS011;9320;50.256;19.026;2022-10-16T07:11:27;17.55;;;11.43;;
18387;SDS011;9320;50.256;19.026;2022-10-16T07:13:57;13.77;;;10.55;;
18387;SDS011;9320;50.256;19.026;2022-10-16T07:16:26;15.68;;;10.90;;
18387;SDS011;9320;50.256;19.026;2022-10-16T07:18:55;18.80;;;11.30;;
18387;SDS011;9320;50.256;19.026;2022-10-16T07:21:27;14.30;;;10.45;;
18387;SDS011;9320;50.256;19.026;2022-10-16T07:23:57;15.30;;;9.77;;
18387;SDS011;9320;50.256;19.026;2022-10-16T07:26:28;20.20;;;11.13;;
18387;SDS011;9320;50.256;19.026;2022-10-16T07:28:58;15.88;;;10.55;;
18387;SDS011;9320;50.256;19.026;2022-10-16T07:31:27;14.27;;;10.25;;
18387;SDS011;9320;50.256;19.026;2022-10-16T07:33:55;16.38;;;10.65;;
18387;SDS011;9320;50.256;19.026;2022-10-16T07:36:25;17.60;;;10.95;;
18387;SDS011;9320;50.256;19.026;2022-10-16T07:38:54;15.00;;;10.50;;
18387;SDS011;9320;50.256;19.026;2022-10-16T07:41:25;16.73;;;10.90;;
18387;SDS011;9320;50.256;19.026;2022-10-16T07:43:54;15.32;;;10.25;;
18387;SDS011;9320;50.256;19.026;2022-10-16T07:46:27;15.90;;;10.57;;
18387;SDS011;9320;50.256;19.026;2022-10-16T07:48:56;16.35;;;10.73;;
18387;SDS011;9320;50.256;19.026;2022-10-16T07:51:24;15.73;;;11.18;;
18387;SDS011;9320;50.256;19.026;2022-10-16T07:53:54;18.63;;;11.15;;
18387;SDS011;9320;50.256;19.026;2022-10-16T07:56:22;16.25;;;10.35;;
18387;SDS011;9320;50.256;19.026;2022-10-16T07:58:50;14.73;;;9.43;;
18387;SDS011;9320;50.256;19.026;2022-10-16T08:01:18;14.10;;;9.98;;
18387;SDS011;9320;50.256;19.026;2022-10-16T08:03:49;15.57;;;10.10;;
18387;SDS011;9320;50.256;19.026;2022-10-16T08:06:18;15.27;;;10.40;;
18387;SDS011;9320;50.256;19.026;2022-10-16T08:08:53;14.70;;;10.15;;
18387;SDS011;9320;50.256;19.026;2022-10-16T08:11:21;15.10;;;10.10;;
18387;SDS011;9320;50.256;19.026;2022-10-16T08:13:49;12.40;;;9.90;;
18387;SDS011;9320;50.256;19.026;2022-10-16T08:16:17;16.73;;;10.18;;
18387;SDS011;9320;50.256;19.026;2022-10-16T08:18:45;16.75;;;10.75;;
18387;SDS011;9320;50.256;19.026;2022-10-16T08:21:15;12.75;;;9.77;;
18387;SDS011;9320;50.256;19.026;2022-10-16T08:23:46;13.10;;;9.95;;
18387;SDS011;9320;50.256;19.026;2022-10-16T08:26:23;13.15;;;9.77;;
18387;SDS011;9320;50.256;19.026;2022-10-16T08:28:52;15.32;;;9.85;;
18387;SDS011;9320;50.256;19.026;2022-10-16T08:31:21;13.75;;;9.88;;
18387;SDS011;9320;50.256;19.026;2022-10-16T08:33:49;14.80;;;9.98;;
18387;SDS011;9320;50.256;19.026;2022-10-16T08:36:19;12.65;;;9.20;;
18387;SDS011;9320;50.256;19.026;2022-10-16T08:38:48;14.77;;;9.43;;
18387;SDS011;9320;50.256;19.026;2022-10-16T08:41:22;14.43;;;9.15;;
18387;SDS011;9320;50.256;19.026;2022-10-16T08:44:22;16.70;;;9.18;;
18387;SDS011;9320;50.256;19.026;2022-10-16T08:47:02;12.73;;;9.18;;
18387;SDS011;9320;50.256;19.026;2022-10-16T08:49:37;13.95;;;9.23;;
18387;SDS011;9320;50.256;19.026;2022-10-16T08:52:11;13.50;;;9.15;;
18387;SDS011;9320;50.256;19.026;2022-10-16T08:54:41;13.40;;;9.63;;
18387;SDS011;9320;50.256;19.026;2022-10-16T08:57:13;13.50;;;8.88;;
18387;SDS011;9320;50.256;19.026;2022-10-16T08:59:49;13.50;;;9.93;;
18387;SDS011;9320;50.256;19.026;2022-10-16T09:02:21;16.23;;;9.65;;
18387;SDS011;9320;50.256;19.026;2022-10-16T09:07:52;13.45;;;9.27;;
18387;SDS011;9320;50.256;19.026;2022-10-16T09:10:34;13.77;;;8.63;;
18387;SDS011;9320;50.256;19.026;2022-10-16T09:13:12;13.85;;;9.18;;
18387;SDS011;9320;50.256;19.026;2022-10-16T09:15:49;16.05;;;9.43;;
18387;SDS011;9320;50.256;19.026;2022-10-16T09:18:24;11.13;;;8.75;;
18387;SDS011;9320;50.256;19.026;2022-10-16T09:20:59;14.50;;;8.93;;
18387;SDS011;9320;50.256;19.026;2022-10-16T09:23:35;15.65;;;9.35;;
18387;SDS011;9320;50.256;19.026;2022-10-16T09:26:05;14.45;;;9.60;;
18387;SDS011;9320;50.256;19.026;2022-10-16T09:28:36;12.55;;;8.75;;
18387;SDS011;9320;50.256;19.026;2022-10-16T09:31:05;13.27;;;9.25;;
18387;SDS011;9320;50.256;19.026;2022-10-16T09:33:33;15.13;;;8.88;;
18387;SDS011;9320;50.256;19.026;2022-10-16T09:36:05;13.73;;;9.02;;
18387;SDS011;9320;50.256;19.026;2022-10-16T09:38:35;16.98;;;8.93;;
18387;SDS011;9320;50.256;19.026;2022-10-16T09:41:11;17.42;;;8.93;;
18387;SDS011;9320;50.256;19.026;2022-10-16T09:43:46;14.93;;;8.80;;
18387;SDS011;9320;50.256;19.026;2022-10-16T09:46:21;12.75;;;8.77;;
18387;SDS011;9320;50.256;19.026;2022-10-16T09:48:53;11.07;;;8.48;;
18387;SDS011;9320;50.256;19.026;2022-10-16T09:51:24;12.07;;;8.40;;
18387;SDS011;9320;50.256;19.026;2022-10-16T09:53:56;12.65;;;8.45;;
18387;SDS011;9320;50.256;19.026;2022-10-16T09:56:26;12.07;;;8.77;;
18387;SDS011;9320;50.256;19.026;2022-10-16T09:58:56;12.80;;;8.43;;
18387;SDS011;9320;50.256;19.026;2022-10-16T10:01:29;12.05;;;8.40;;
18387;SDS011;9320;50.256;19.026;2022-10-16T10:04:02;10.38;;;8.50;;
18387;SDS011;9320;50.256;19.026;2022-10-16T10:06:32;13.38;;;8.85;;
18387;SDS011;9320;50.256;19.026;2022-10-16T10:09:14;13.27;;;8.77;;
18387;SDS011;9320;50.256;19.026;2022-10-16T10:11:50;12.57;;;8.70;;
18387;SDS011;9320;50.256;19.026;2022-10-16T10:14:21;12.05;;;8.25;;
18387;SDS011;9320;50.256;19.026;2022-10-16T10:17:02;13.23;;;8.68;;
18387;SDS011;9320;50.256;19.026;2022-10-16T10:19:44;10.90;;;7.93;;
18387;SDS011;9320;50.256;19.026;2022-10-16T10:22:17;10.50;;;8.43;;
18387;SDS011;9320;50.256;19.026;2022-10-16T10:24:56;13.05;;;8.45;;
18387;SDS011;9320;50.256;19.026;2022-10-16T10:27:31;12.30;;;8.05;;
18387;SDS011;9320;50.256;19.026;2022-10-16T10:30:06;11.07;;;8.15;;
18387;SDS011;9320;50.256;19.026;2022-10-16T10:32:40;12.35;;;8.43;;
18387;SDS011;9320;50.256;19.026;2022-10-16T10:35:19;12.95;;;8.98;;
18387;SDS011;9320;50.256;19.026;2022-10-16T10:37:58;14.27;;;8.07;;
18387;SDS011;9320;50.256;19.026;2022-10-16T10:40:50;11.55;;;7.43;;
18387;SDS011;9320;50.256;19.026;2022-10-16T10:43:28;11.77;;;8.18;;
18387;SDS011;9320;50.256;19.026;2022-10-16T10:46:08;11.75;;;8.20;;
18387;SDS011;9320;50.256;19.026;2022-10-16T10:48:44;11.80;;;8.50;;
18387;SDS011;9320;50.256;19.026;2022-10-16T10:51:23;12.18;;;8.40;;
18387;SDS011;9320;50.256;19.026;2022-10-16T10:54:02;10.80;;;7.93;;
18387;SDS011;9320;50.256;19.026;2022-10-16T10:56:47;11.82;;;8.00;;
18387;SDS011;9320;50.256;19.026;2022-10-16T10:59:36;12.00;;;8.10;;
18387;SDS011;9320;50.256;19.026;2022-10-16T11:02:18;11.45;;;7.93;;
18387;SDS011;9320;50.256;19.026;2022-10-16T11:04:58;10.18;;;7.78;;
18387;SDS011;9320;50.256;19.026;2022-10-16T11:07:49;12.75;;;7.85;;
18387;SDS011;9320;50.256;19.026;2022-10-16T11:10:20;12.18;;;7.88;;
18387;SDS011;9320;50.256;19.026;2022-10-16T11:12:52;14.77;;;8.48;;
18387;SDS011;9320;50.256;19.026;2022-10-16T11:15:25;11.07;;;8.32;;
18387;SDS011;9320;50.256;19.026;2022-10-16T11:17:57;11.23;;;8.27;;
18387;SDS011;9320;50.256;19.026;2022-10-16T11:20:32;12.55;;;7.60;;
18387;SDS011;9320;50.256;19.026;2022-10-16T11:23:05;12.18;;;8.50;;
18387;SDS011;9320;50.256;19.026;2022-10-16T11:25:39;11.25;;;8.75;;
18387;SDS011;9320;50.256;19.026;2022-10-16T11:28:09;11.13;;;8.18;;
18387;SDS011;9320;50.256;19.026;2022-10-16T11:30:41;11.48;;;7.43;;
18387;SDS011;9320;50.256;19.026;2022-10-16T11:36:06;11.20;;;8.07;;
18387;SDS011;9320;50.256;19.026;2022-10-16T11:38:41;11.48;;;8.10;;
18387;SDS011;9320;50.256;19.026;2022-10-16T11:41:18;12.55;;;8.23;;
18387;SDS011;9320;50.256;19.026;2022-10-16T11:43:55;12.13;;;8.00;;
18387;SDS011;9320;50.256;19.026;2022-10-16T11:46:42;12.32;;;7.88;;
18387;SDS011;9320;50.256;19.026;2022-10-16T11:49:34;10.55;;;8.00;;
18387;SDS011;9320;50.256;19.026;2022-10-16T11:52:06;10.80;;;7.70;;
18387;SDS011;9320;50.256;19.026;2022-10-16T11:54:41;13.52;;;8.30;;
18387;SDS011;9320;50.256;19.026;2022-10-16T11:57:15;11.77;;;8.02;;
18387;SDS011;9320;50.256;19.026;2022-10-16T11:59:48;10.50;;;8.10;;
18387;SDS011;9320;50.256;19.026;2022-10-16T12:02:25;12.77;;;8.55;;
18387;SDS011;9320;50.256;19.026;2022-10-16T12:05:16;11.82;;;8.10;;
18387;SDS011;9320;50.256;19.026;2022-10-16T12:07:51;14.27;;;8.98;;
18387;SDS011;9320;50.256;19.026;2022-10-16T12:10:28;12.77;;;8.00;;
18387;SDS011;9320;50.256;19.026;2022-10-16T12:16:06;14.02;;;7.97;;
18387;SDS011;9320;50.256;19.026;2022-10-16T12:18:47;11.98;;;8.15;;
18387;SDS011;9320;50.256;19.026;2022-10-16T12:21:16;14.35;;;7.80;;
18387;SDS011;9320;50.256;19.026;2022-10-16T12:23:48;10.95;;;8.45;;
18387;SDS011;9320;50.256;19.026;2022-10-16T12:26:24;14.80;;;8.20;;
18387;SDS011;9320;50.256;19.026;2022-10-16T12:28:54;15.52;;;8.57;;
18387;SDS011;9320;50.256;19.026;2022-10-16T12:31:24;11.77;;;8.32;;
18387;SDS011;9320;50.256;19.026;2022-10-16T12:34:23;13.50;;;8.20;;
18387;SDS011;9320;50.256;19.026;2022-10-16T12:36:56;12.85;;;8.30;;
18387;SDS011;9320;50.256;19.026;2022-10-16T12:39:37;10.75;;;7.93;;
18387;SDS011;9320;50.256;19.026;2022-10-16T12:42:17;13.05;;;8.27;;
18387;SDS011;9320;50.256;19.026;2022-10-16T12:44:48;12.35;;;8.70;;
18387;SDS011;9320;50.256;19.026;2022-10-16T12:47:22;11.45;;;8.23;;
18387;SDS011;9320;50.256;19.026;2022-10-16T12:49:52;17.33;;;9.15;;
18387;SDS011;9320;50.256;19.026;2022-10-16T12:52:25;12.57;;;9.45;;
18387;SDS011;9320;50.256;19.026;2022-10-16T12:54:55;12.68;;;9.05;;
18387;SDS011;9320;50.256;19.026;2022-10-16T12:57:30;17.83;;;9.48;;
18387;SDS011;9320;50.256;19.026;2022-10-16T13:00:13;13.05;;;9.15;;
18387;SDS011;9320;50.256;19.026;2022-10-16T13:02:57;13.73;;;9.73;;
18387;SDS011;9320;50.256;19.026;2022-10-16T13:06:01;13.98;;;9.80;;
18387;SDS011;9320;50.256;19.026;2022-10-16T13:08:43;14.57;;;9.43;;
18387;SDS011;9320;50.256;19.026;2022-10-16T13:11:25;13.32;;;9.55;;
18387;SDS011;9320;50.256;19.026;2022-10-16T13:14:16;13.73;;;10.27;;
18387;SDS011;9320;50.256;19.026;2022-10-16T13:17:01;16.30;;;11.02;;
18387;SDS011;9320;50.256;19.026;2022-10-16T13:19:41;17.58;;;11.88;;
18387;SDS011;9320;50.256;19.026;2022-10-16T13:22:15;17.63;;;11.13;;
18387;SDS011;9320;50.256;19.026;2022-10-16T13:24:52;17.10;;;10.93;;
18387;SDS011;9320;50.256;19.026;2022-10-16T13:27:35;13.93;;;10.40;;
18387;SDS011;9320;50.256;19.026;2022-10-16T13:30:12;17.60;;;11.15;;
18387;SDS011;9320;50.256;19.026;2022-10-16T13:32:45;20.58;;;11.43;;
18387;SDS011;9320;50.256;19.026;2022-10-16T13:35:25;16.05;;;10.82;;
18387;SDS011;9320;50.256;19.026;2022-10-16T13:38:05;15.10;;;10.20;;
18387;SDS011;9320;50.256;19.026;2022-10-16T13:40:47;15.27;;;9.82;;
18387;SDS011;9320;50.256;19.026;2022-10-16T13:43:17;16.42;;;9.68;;
18387;SDS011;9320;50.256;19.026;2022-10-16T13:45:53;14.73;;;9.90;;
18387;SDS011;9320;50.256;19.026;2022-10-16T13:48:22;15.27;;;9.90;;
18387;SDS011;9320;50.256;19.026;2022-10-16T13:51:02;14.23;;;9.40;;
18387;SDS011;9320;50.256;19.026;2022-10-16T13:53:32;15.38;;;9.48;;
18387;SDS011;9320;50.256;19.026;2022-10-16T13:56:02;17.10;;;10.40;;
18387;SDS011;9320;50.256;19.026;2022-10-16T13:58:31;14.07;;;9.55;;
18387;SDS011;9320;50.256;19.026;2022-10-16T14:01:00;13.85;;;9.13;;
18387;SDS011;9320;50.256;19.026;2022-10-16T14:03:31;15.07;;;9.82;;
18387;SDS011;9320;50.256;19.026;2022-10-16T14:06:03;16.33;;;10.38;;
18387;SDS011;9320;50.256;19.026;2022-10-16T14:08:35;18.23;;;10.90;;
18387;SDS011;9320;50.256;19.026;2022-10-16T14:11:03;13.35;;;9.85;;
18387;SDS011;9320;50.256;19.026;2022-10-16T14:13:31;16.05;;;9.93;;
18387;SDS011;9320;50.256;19.026;2022-10-16T14:16:05;15.05;;;10.00;;
18387;SDS011;9320;50.256;19.026;2022-10-16T14:18:35;15.20;;;10.18;;
18387;SDS011;9320;50.256;19.026;2022-10-16T14:21:07;15.45;;;10.00;;
18387;SDS011;9320;50.256;19.026;2022-10-16T14:23:41;13.55;;;9.73;;
18387;SDS011;9320;50.256;19.026;2022-10-16T14:26:13;14.00;;;9.75;;
18387;SDS011;9320;50.256;19.026;2022-10-16T14:28:43;13.93;;;9.50;;
18387;SDS011;9320;50.256;19.026;2022-10-16T14:31:26;13.10;;;9.43;;
18387;SDS011;9320;50.256;19.026;2022-10-16T14:33:56;13.57;;;10.02;;
18387;SDS011;9320;50.256;19.026;2022-10-16T14:36:26;15.75;;;10.68;;
18387;SDS011;9320;50.256;19.026;2022-10-16T14:38:59;14.35;;;10.63;;
18387;SDS011;9320;50.256;19.026;2022-10-16T14:41:30;19.40;;;10.45;;
18387;SDS011;9320;50.256;19.026;2022-10-16T14:44:01;14.52;;;10.23;;
18387;SDS011;9320;50.256;19.026;2022-10-16T14:46:32;17.15;;;10.05;;
18387;SDS011;9320;50.256;19.026;2022-10-16T14:49:03;17.27;;;9.82;;
18387;SDS011;9320;50.256;19.026;2022-10-16T14:51:45;12.65;;;8.88;;
18387;SDS011;9320;50.256;19.026;2022-10-16T14:54:14;13.27;;;9.43;;
18387;SDS011;9320;50.256;19.026;2022-10-16T14:56:45;14.32;;;9.75;;
18387;SDS011;9320;50.256;19.026;2022-10-16T14:59:16;14.05;;;9.68;;
18387;SDS011;9320;50.256;19.026;2022-10-16T15:01:46;12.77;;;9.55;;
18387;SDS011;9320;50.256;19.026;2022-10-16T15:04:14;13.45;;;10.07;;
18387;SDS011;9320;50.256;19.026;2022-10-16T15:06:45;12.25;;;9.10;;